Airfield :
LOGIN :

Register | Disclaimer

   EN    FR    IT 

 










Legend :    VFR   Marginal VFR   IFR   Intensive IFR   Very Intensive IFR
Visi :
Ceiling :
>= 8 km
>= 3000ft
5 to 8 km
1000 to 3000 ft
1500m to 5 km
500 to 1000 ft
800 to 1500m
200 to 500 ft
< 800m
< 200 ft
Symbols :   Thunderstorms  Fog  Heavy snow  Heavy precipitations  Wind > 20 kt
SIGMETs :     Misc.  Thunderstorms  Icing  Turbulence  Mountain Waves  Volcanic Ashes






- Airport Elevation : 220 ft
- IATA code : CWL


EGFF - Cardiff Rhoose

CURRENT METAR :
  • 190620Z AUTO 05013KT 9999 NCD 13/10 Q1020

EXPIRED METARs :
  • 190550Z AUTO 05012KT 9999 NCD 13/10 Q1020
  • 190520Z AUTO 06012G22KT 9999 NCD 12/10 Q1020
  • 190450Z AUTO 05012KT 9999 BKN048 12/09 Q1019
  • 190420Z AUTO 05011KT 9999 BKN046 12/10 Q1019
  • 190350Z AUTO 05011KT 9999 FEW021 BKN045 12/09 Q1019
  • 190320Z AUTO 04010KT 9999 BKN019 13/10 Q1019
  • 190250Z AUTO 05011KT 9999 BKN020 OVC025 13/10 Q1019
  • 190220Z AUTO 04010KT 9999 FEW018 BKN023 BKN028 12/09 Q1019
  • 190150Z AUTO 03004KT 9999 FEW018 OVC034 12/09 Q1019

TAF TAF EGFF
Valid from the 19 at 06:00 until the 20 at 06:00 UTC


190454Z 1906/2006 06010KT 9999 SCT040
PROB40 1914/1918 VRB03KT
BECMG 1918/1920 35005KT
BECMG 2003/2006 14010KT
ATIS : +44 1446 729 319



MET'MAP, your aeronautical weather chart ! - Copyright ORBIFLY December 2007 - Disclaimer

ORBIFLY MET'MAP TEAM :

Programming & Development : Alexandra Zaïnal
Original concept : Baudouin d'Aumeries
Technical & hardware support : Manuel Goepfert
Assistance : Marc-Olivier Méhu




SOURCES & CREDITS :

   NOAA